Time;durP1;ratioP1;P1;durP2;ratioP2;P2;SDS_P1;SDS_P2;PMS_P1;PMS_P2;Temp;Humidity;BMP_temperature;BMP_pressure;BME280_temperature;BME280_humidity;BME280_pressure;Samples;Min_cycle;Max_cycle;Signal;HPM_P1;HPM_P2
2021/07/07 00:02:04;;;;;;;2.87;2.27;;;;;;;;;;5027971;28;20043;-65
2021/07/07 00:04:29;;;;;;;2.97;2.00;;;;;;;;;;5036049;28;20264;-65
2021/07/07 00:06:54;;;;;;;3.50;2.20;;;;;;;;;;5035311;28;20036;-65
2021/07/07 00:09:20;;;;;;;5.10;2.27;;;;;;;;;;5033981;28;20021;-65
2021/07/07 00:11:45;;;;;;;3.70;1.90;;;;;;;;;;5026458;28;20377;-64
2021/07/07 00:14:10;;;;;;;2.70;2.00;;;;;;;;;;5029851;28;20388;-65
2021/07/07 00:16:35;;;;;;;3.47;2.10;;;;;;;;;;5035543;28;20047;-64
2021/07/07 00:19:00;;;;;;;3.05;1.75;;;;;;;;;;5036854;28;20942;-65
2021/07/07 00:21:26;;;;;;;2.90;1.85;;;;;;;;;;5027842;28;20033;-64
2021/07/07 00:23:51;;;;;;;2.50;2.00;;;;;;;;;;5027103;28;20556;-65
2021/07/07 00:26:16;;;;;;;4.13;1.52;;;;;;;;;;5030415;28;20302;-65
2021/07/07 00:28:42;;;;;;;3.60;2.10;;;;;;;;;;5028877;28;20409;-65
2021/07/07 00:31:07;;;;;;;2.90;1.70;;;;;;;;;;5028233;28;20025;-65
2021/07/07 00:33:32;;;;;;;4.85;1.90;;;;;;;;;;5038486;28;20055;-64
2021/07/07 00:35:57;;;;;;;2.87;1.83;;;;;;;;;;5042292;28;20041;-64
2021/07/07 00:38:22;;;;;;;5.17;1.90;;;;;;;;;;5037548;28;20315;-64
2021/07/07 00:40:48;;;;;;;2.73;1.97;;;;;;;;;;5030338;28;20284;-65
2021/07/07 00:43:14;;;;;;;2.80;1.90;;;;;;;;;;5030065;28;20310;-65
2021/07/07 00:45:39;;;;;;;2.75;2.08;;;;;;;;;;5037323;28;20034;-64
2021/07/07 00:48:04;;;;;;;3.67;2.20;;;;;;;;;;5030103;28;20019;-65
2021/07/07 00:50:30;;;;;;;2.30;2.10;;;;;;;;;;5031348;28;20037;-64
2021/07/07 00:52:55;;;;;;;2.58;1.95;;;;;;;;;;5028825;28;20025;-65
2021/07/07 00:55:21;;;;;;;3.67;2.05;;;;;;;;;;5030185;28;20494;-65
2021/07/07 00:57:46;;;;;;;3.58;2.17;;;;;;;;;;5039977;28;20037;-65
2021/07/07 01:00:15;;;;;;;3.30;2.17;;;;;;;;;;5032688;28;20108;-66
2021/07/07 01:02:42;;;;;;;2.25;1.52;;;;;;;;;;5028728;28;20025;-65
2021/07/07 01:05:08;;;;;;;2.20;1.77;;;;;;;;;;5028122;28;20028;-64
2021/07/07 01:07:33;;;;;;;4.82;2.30;;;;;;;;;;5027787;28;20028;-67
2021/07/07 01:09:59;;;;;;;3.97;2.00;;;;;;;;;;5027277;28;20013;-65
2021/07/07 01:12:26;;;;;;;2.55;1.70;;;;;;;;;;5027887;28;20053;-66
2021/07/07 01:14:52;;;;;;;2.90;1.75;;;;;;;;;;5028797;28;20038;-66
2021/07/07 01:17:21;;;;;;;2.47;1.65;;;;;;;;;;5032614;28;20017;-65
2021/07/07 01:19:46;;;;;;;3.92;1.77;;;;;;;;;;5036260;28;20033;-64
2021/07/07 01:22:12;;;;;;;3.28;1.98;;;;;;;;;;5032684;28;20024;-64
2021/07/07 01:24:37;;;;;;;4.18;2.05;;;;;;;;;;5034619;28;20029;-64
2021/07/07 01:27:02;;;;;;;2.78;1.80;;;;;;;;;;5031016;28;20083;-64
2021/07/07 01:29:27;;;;;;;2.22;1.65;;;;;;;;;;5029388;28;20036;-64
2021/07/07 01:31:53;;;;;;;2.28;1.63;;;;;;;;;;5037050;28;20035;-64
2021/07/07 01:34:18;;;;;;;2.35;1.50;;;;;;;;;;5042129;28;20042;-65
2021/07/07 01:36:43;;;;;;;3.45;1.70;;;;;;;;;;5040547;28;20026;-63
2021/07/07 01:39:09;;;;;;;2.17;1.70;;;;;;;;;;5040892;28;20021;-64
2021/07/07 01:41:34;;;;;;;1.75;1.35;;;;;;;;;;5037830;28;20041;-64
2021/07/07 01:44:00;;;;;;;2.33;1.58;;;;;;;;;;5033621;28;20536;-65
2021/07/07 01:46:25;;;;;;;2.63;1.50;;;;;;;;;;5035454;28;20029;-65
2021/07/07 01:48:50;;;;;;;2.75;1.58;;;;;;;;;;5035653;28;20488;-65
2021/07/07 01:51:16;;;;;;;2.65;1.65;;;;;;;;;;5029498;28;20109;-65
2021/07/07 01:53:41;;;;;;;1.60;1.42;;;;;;;;;;5038729;28;20530;-63
2021/07/07 01:56:07;;;;;;;2.08;1.50;;;;;;;;;;5032844;28;20045;-64
2021/07/07 01:58:32;;;;;;;1.95;1.55;;;;;;;;;;5041450;28;20486;-65
2021/07/07 02:00:57;;;;;;;2.03;1.30;;;;;;;;;;5029605;28;20031;-63
2021/07/07 02:03:22;;;;;;;2.08;1.20;;;;;;;;;;5027282;28;20268;-64
2021/07/07 02:05:47;;;;;;;3.40;1.58;;;;;;;;;;5037483;28;20639;-64
2021/07/07 02:08:13;;;;;;;2.92;1.48;;;;;;;;;;5033770;28;20024;-65
2021/07/07 02:10:38;;;;;;;2.33;1.60;;;;;;;;;;5028012;28;20035;-65
2021/07/07 02:13:04;;;;;;;3.65;1.60;;;;;;;;;;5028980;28;20049;-65
2021/07/07 02:15:32;;;;;;;4.30;1.73;;;;;;;;;;5036876;28;20028;-65
2021/07/07 02:17:58;;;;;;;2.10;1.33;;;;;;;;;;5041563;28;20060;-65
2021/07/07 02:20:24;;;;;;;2.75;1.63;;;;;;;;;;5033274;28;20067;-64
2021/07/07 02:22:49;;;;;;;2.28;1.60;;;;;;;;;;5028512;28;20713;-65
2021/07/07 02:25:17;;;;;;;2.00;1.60;;;;;;;;;;5039608;28;20017;-64
2021/07/07 02:27:42;;;;;;;1.90;1.50;;;;;;;;;;5034811;28;20464;-64
2021/07/07 02:30:10;;;;;;;1.88;1.55;;;;;;;;;;5031021;28;20123;-66
2021/07/07 02:32:35;;;;;;;2.38;1.67;;;;;;;;;;5028997;28;20018;-65
2021/07/07 02:35:01;;;;;;;2.10;1.63;;;;;;;;;;5035324;28;20064;-64
2021/07/07 02:37:26;;;;;;;2.03;1.40;;;;;;;;;;5043848;28;20021;-65
2021/07/07 02:39:51;;;;;;;2.85;1.77;;;;;;;;;;5032962;28;20033;-64
2021/07/07 02:42:17;;;;;;;2.05;1.48;;;;;;;;;;5032134;28;20072;-66
2021/07/07 02:44:42;;;;;;;3.08;1.70;;;;;;;;;;5031785;28;20025;-64
2021/07/07 02:47:07;;;;;;;2.17;1.70;;;;;;;;;;5027763;28;20556;-64
2021/07/07 02:49:32;;;;;;;2.55;1.90;;;;;;;;;;5032102;28;20025;-64
2021/07/07 02:51:58;;;;;;;4.93;1.70;;;;;;;;;;5024934;28;20586;-64
2021/07/07 02:54:23;;;;;;;2.80;1.80;;;;;;;;;;5026193;28;20642;-64
2021/07/07 02:56:48;;;;;;;1.83;1.60;;;;;;;;;;5035021;28;20276;-65
2021/07/07 02:59:13;;;;;;;3.58;1.88;;;;;;;;;;5036962;28;20467;-64
2021/07/07 03:01:38;;;;;;;2.30;1.70;;;;;;;;;;5026152;28;20025;-65
2021/07/07 03:04:03;;;;;;;4.25;1.80;;;;;;;;;;5039371;28;20392;-65
2021/07/07 03:06:29;;;;;;;2.53;2.20;;;;;;;;;;5032612;28;20461;-65
2021/07/07 03:08:54;;;;;;;2.95;2.00;;;;;;;;;;5035638;28;20420;-65
2021/07/07 03:11:19;;;;;;;3.58;1.67;;;;;;;;;;5034512;28;20022;-65
2021/07/07 03:13:44;;;;;;;3.45;1.80;;;;;;;;;;5036716;28;20037;-65
2021/07/07 03:16:10;;;;;;;5.35;1.83;;;;;;;;;;5038406;28;20511;-64
2021/07/07 03:18:35;;;;;;;3.42;1.92;;;;;;;;;;5039478;28;20039;-65
2021/07/07 03:21:00;;;;;;;2.65;1.90;;;;;;;;;;5035201;28;20016;-65
2021/07/07 03:23:26;;;;;;;3.03;1.95;;;;;;;;;;5033554;28;20029;-64
2021/07/07 03:25:52;;;;;;;2.78;1.83;;;;;;;;;;5033509;28;20400;-65
2021/07/07 03:28:18;;;;;;;4.63;1.83;;;;;;;;;;5033246;28;20017;-65
2021/07/07 03:30:43;;;;;;;3.63;1.90;;;;;;;;;;5031152;28;20021;-65
2021/07/07 03:33:09;;;;;;;3.20;2.10;;;;;;;;;;5034217;28;20114;-65
2021/07/07 03:35:34;;;;;;;2.88;1.85;;;;;;;;;;5034947;28;20117;-64
2021/07/07 03:38:00;;;;;;;3.47;1.85;;;;;;;;;;5034650;28;20017;-65
2021/07/07 03:40:26;;;;;;;3.85;2.22;;;;;;;;;;5031305;28;20032;-64
2021/07/07 03:42:51;;;;;;;2.28;1.70;;;;;;;;;;5031046;28;20041;-65
2021/07/07 03:45:18;;;;;;;2.33;1.85;;;;;;;;;;5031956;28;20564;-66
2021/07/07 03:47:43;;;;;;;3.65;1.92;;;;;;;;;;5033048;28;20029;-65
2021/07/07 03:50:10;;;;;;;5.50;1.90;;;;;;;;;;5033512;28;20036;-64
2021/07/07 03:52:35;;;;;;;1.98;1.60;;;;;;;;;;5032192;28;20587;-64
2021/07/07 03:55:02;;;;;;;1.67;1.33;;;;;;;;;;5031208;28;20037;-64
2021/07/07 03:57:27;;;;;;;2.20;1.60;;;;;;;;;;5034518;28;20029;-65
2021/07/07 03:59:52;;;;;;;3.50;1.90;;;;;;;;;;5041042;28;20052;-65
2021/07/07 04:02:17;;;;;;;3.42;1.63;;;;;;;;;;5034345;28;20053;-65
2021/07/07 04:04:45;;;;;;;2.65;1.33;;;;;;;;;;5041839;28;20029;-64
2021/07/07 04:07:11;;;;;;;3.17;1.65;;;;;;;;;;5037686;28;20039;-65
2021/07/07 04:09:36;;;;;;;3.63;1.63;;;;;;;;;;5029298;28;20538;-65
2021/07/07 04:12:01;;;;;;;3.30;1.50;;;;;;;;;;5029144;28;20552;-64
2021/07/07 04:14:27;;;;;;;2.83;1.63;;;;;;;;;;5037249;28;20068;-65
2021/07/07 04:16:53;;;;;;;5.07;1.85;;;;;;;;;;5034580;28;20036;-65
2021/07/07 04:19:19;;;;;;;2.35;1.60;;;;;;;;;;5039039;28;20106;-64
2021/07/07 04:21:45;;;;;;;2.85;1.60;;;;;;;;;;5036560;28;20052;-65
2021/07/07 04:24:10;;;;;;;5.47;2.10;;;;;;;;;;5035121;28;20036;-65
2021/07/07 04:26:36;;;;;;;6.77;1.70;;;;;;;;;;5040498;28;20013;-65
2021/07/07 04:29:01;;;;;;;3.10;1.65;;;;;;;;;;5044597;28;20255;-64
2021/07/07 04:31:27;;;;;;;2.00;1.40;;;;;;;;;;5027595;28;20029;-65
2021/07/07 04:33:52;;;;;;;2.65;1.25;;;;;;;;;;5029326;28;20033;-64
2021/07/07 04:36:18;;;;;;;2.08;1.50;;;;;;;;;;5029357;28;20465;-64
2021/07/07 04:38:43;;;;;;;5.30;1.77;;;;;;;;;;5030627;28;20038;-65
2021/07/07 04:41:08;;;;;;;2.40;1.20;;;;;;;;;;5031817;28;20076;-66
2021/07/07 04:43:33;;;;;;;2.90;1.40;;;;;;;;;;5040076;28;20029;-65
2021/07/07 04:45:58;;;;;;;1.63;1.20;;;;;;;;;;5032251;28;20037;-65
2021/07/07 04:48:23;;;;;;;1.80;1.30;;;;;;;;;;5035691;28;20758;-65
2021/07/07 04:50:49;;;;;;;1.55;1.08;;;;;;;;;;5036146;28;20504;-65
2021/07/07 04:53:14;;;;;;;2.17;1.10;;;;;;;;;;5044871;28;20021;-64
2021/07/07 04:55:39;;;;;;;1.98;1.30;;;;;;;;;;5035850;28;20028;-66
2021/07/07 04:58:07;;;;;;;1.48;1.15;;;;;;;;;;5030282;28;20021;-65
2021/07/07 05:00:32;;;;;;;3.08;1.25;;;;;;;;;;5035229;28;20390;-65
2021/07/07 05:02:58;;;;;;;2.03;1.40;;;;;;;;;;5031357;28;20048;-64
2021/07/07 05:05:23;;;;;;;2.38;1.33;;;;;;;;;;5028176;28;20100;-65
2021/07/07 05:07:48;;;;;;;2.00;1.10;;;;;;;;;;5035187;28;20052;-65
2021/07/07 05:10:14;;;;;;;2.92;1.17;;;;;;;;;;5033265;28;20029;-62
2021/07/07 05:12:39;;;;;;;1.88;1.00;;;;;;;;;;5028639;28;20473;-61
2021/07/07 05:15:05;;;;;;;2.75;1.02;;;;;;;;;;5033043;28;20034;-62
2021/07/07 05:17:31;;;;;;;1.90;1.00;;;;;;;;;;5030814;28;20017;-62
2021/07/07 05:19:57;;;;;;;1.40;1.08;;;;;;;;;;5034822;28;20041;-62
2021/07/07 05:22:22;;;;;;;1.35;1.00;;;;;;;;;;5038404;28;20032;-60
2021/07/07 05:24:48;;;;;;;4.35;1.10;;;;;;;;;;5027518;28;20460;-60
2021/07/07 05:27:13;;;;;;;1.80;1.13;;;;;;;;;;5033297;28;20061;-59
2021/07/07 05:29:38;;;;;;;1.67;1.00;;;;;;;;;;5028556;28;20108;-60
2021/07/07 05:32:04;;;;;;;1.63;1.02;;;;;;;;;;5030172;28;20022;-60
2021/07/07 05:34:29;;;;;;;1.58;1.10;;;;;;;;;;5028881;28;20476;-61
2021/07/07 05:36:54;;;;;;;1.23;1.13;;;;;;;;;;5031401;28;20038;-60
2021/07/07 05:39:19;;;;;;;2.22;1.00;;;;;;;;;;5035144;28;20024;-60
2021/07/07 05:41:44;;;;;;;2.05;1.05;;;;;;;;;;5033855;28;20053;-59
2021/07/07 05:44:09;;;;;;;1.87;1.00;;;;;;;;;;5042562;28;20350;-61
2021/07/07 05:46:35;;;;;;;2.97;1.10;;;;;;;;;;5046609;28;20312;-60
2021/07/07 05:49:00;;;;;;;1.48;0.90;;;;;;;;;;5034316;28;20021;-60
2021/07/07 05:51:25;;;;;;;3.47;1.00;;;;;;;;;;5032140;28;20112;-61
2021/07/07 05:53:50;;;;;;;5.83;0.80;;;;;;;;;;5034016;28;20108;-61
2021/07/07 05:56:16;;;;;;;2.07;0.90;;;;;;;;;;5036539;28;20306;-60
2021/07/07 05:58:41;;;;;;;1.17;0.80;;;;;;;;;;5033854;28;20810;-59
2021/07/07 06:01:06;;;;;;;1.33;0.88;;;;;;;;;;5026744;28;20358;-61
2021/07/07 06:03:31;;;;;;;1.58;0.90;;;;;;;;;;5027782;28;20022;-61
2021/07/07 06:05:57;;;;;;;1.38;0.80;;;;;;;;;;5035933;28;20029;-60
2021/07/07 06:08:22;;;;;;;1.60;1.00;;;;;;;;;;5034921;28;20013;-60
2021/07/07 06:10:47;;;;;;;2.88;0.93;;;;;;;;;;5028917;28;20264;-60
2021/07/07 06:13:13;;;;;;;0.82;0.75;;;;;;;;;;5041928;28;20067;-60
2021/07/07 06:15:38;;;;;;;1.52;0.90;;;;;;;;;;5028263;28;20030;-60
2021/07/07 06:18:04;;;;;;;1.42;0.85;;;;;;;;;;5029418;28;20022;-59
2021/07/07 06:20:29;;;;;;;3.08;1.23;;;;;;;;;;5029612;28;20025;-60
2021/07/07 06:22:55;;;;;;;4.28;0.90;;;;;;;;;;5033414;28;20412;-61
2021/07/07 06:25:20;;;;;;;1.15;0.90;;;;;;;;;;5037469;28;20025;-61
2021/07/07 06:27:45;;;;;;;1.63;1.00;;;;;;;;;;5034525;28;20083;-60
2021/07/07 06:30:12;;;;;;;2.75;1.02;;;;;;;;;;5036930;28;20040;-59
2021/07/07 06:32:37;;;;;;;6.72;1.00;;;;;;;;;;5037659;28;20117;-60
2021/07/07 06:35:03;;;;;;;1.58;0.93;;;;;;;;;;5036625;28;20112;-60
2021/07/07 06:37:28;;;;;;;2.72;1.10;;;;;;;;;;5037224;28;20553;-60
2021/07/07 06:39:54;;;;;;;2.63;0.85;;;;;;;;;;5038678;28;20519;-65
2021/07/07 06:42:19;;;;;;;1.55;1.10;;;;;;;;;;5038090;28;20552;-59
2021/07/07 06:44:44;;;;;;;2.70;1.30;;;;;;;;;;5031626;28;20103;-59
2021/07/07 06:47:11;;;;;;;2.03;1.40;;;;;;;;;;5032721;28;20010;-61
2021/07/07 06:49:37;;;;;;;3.78;1.70;;;;;;;;;;5035244;28;20025;-60
2021/07/07 06:52:02;;;;;;;3.85;1.80;;;;;;;;;;5033224;28;20026;-59
2021/07/07 06:54:28;;;;;;;4.45;1.55;;;;;;;;;;5033934;28;20614;-60
2021/07/07 06:56:53;;;;;;;2.10;1.25;;;;;;;;;;5036543;28;20036;-60
2021/07/07 06:59:18;;;;;;;2.72;1.00;;;;;;;;;;5033402;28;20021;-62
2021/07/07 07:01:43;;;;;;;2.80;0.93;;;;;;;;;;5032279;28;20759;-60
2021/07/07 07:04:08;;;;;;;2.00;0.93;;;;;;;;;;5032626;28;20276;-61
2021/07/07 07:06:35;;;;;;;2.00;1.10;;;;;;;;;;5043282;28;20467;-60
2021/07/07 07:09:00;;;;;;;4.72;1.38;;;;;;;;;;5045463;28;20398;-60
2021/07/07 07:11:25;;;;;;;1.87;1.20;;;;;;;;;;5044700;28;20049;-60
2021/07/07 07:13:51;;;;;;;3.73;1.43;;;;;;;;;;5037113;28;20289;-61
2021/07/07 07:16:16;;;;;;;2.60;1.50;;;;;;;;;;5042627;28;20406;-59
2021/07/07 07:18:41;;;;;;;1.77;0.95;;;;;;;;;;5048199;28;20278;-60
2021/07/07 07:21:06;;;;;;;2.88;1.30;;;;;;;;;;5031230;28;20053;-60
2021/07/07 07:23:32;;;;;;;2.17;1.30;;;;;;;;;;5042219;28;20056;-60
2021/07/07 07:25:57;;;;;;;2.85;1.17;;;;;;;;;;5038042;28;20060;-60
2021/07/07 07:28:23;;;;;;;1.38;1.08;;;;;;;;;;5030391;28;20046;-61
2021/07/07 07:30:48;;;;;;;1.90;1.27;;;;;;;;;;5030715;28;20493;-61
2021/07/07 07:33:13;;;;;;;2.40;1.30;;;;;;;;;;5031663;28;20252;-61
2021/07/07 07:35:38;;;;;;;2.00;1.30;;;;;;;;;;5030605;28;20049;-60
2021/07/07 07:38:05;;;;;;;1.45;1.15;;;;;;;;;;5044126;28;20405;-60
2021/07/07 07:40:40;;;;;;;2.10;1.30;;;;;;;;;;5051156;28;20037;-60
2021/07/07 07:43:07;;;;;;;2.70;1.23;;;;;;;;;;5042796;28;20520;-60
2021/07/07 07:45:32;;;;;;;2.08;1.10;;;;;;;;;;5044594;28;20025;-60
2021/07/07 07:47:57;;;;;;;3.92;1.10;;;;;;;;;;5031229;28;20021;-62
2021/07/07 07:50:23;;;;;;;3.42;1.40;;;;;;;;;;5028556;28;20072;-63
2021/07/07 07:52:48;;;;;;;1.60;0.90;;;;;;;;;;5036378;28;20029;-62
2021/07/07 07:55:13;;;;;;;2.38;1.42;;;;;;;;;;5030705;28;20033;-62
2021/07/07 07:57:39;;;;;;;2.97;1.50;;;;;;;;;;5029741;28;20495;-62
2021/07/07 08:00:08;;;;;;;2.75;1.17;;;;;;;;;;5029323;28;20022;-63
2021/07/07 08:02:34;;;;;;;;;;;;;;;;;;5036339;28;20036;-62
2021/07/07 08:04:59;;;;;;;2.83;1.17;;;;;;;;;;5043278;28;19932;-62
2021/07/07 08:07:27;;;;;;;1.98;1.23;;;;;;;;;;5050194;28;20279;-62
2021/07/07 08:09:52;;;;;;;3.67;1.42;;;;;;;;;;5050356;28;20057;-62
2021/07/07 08:12:17;;;;;;;2.70;1.50;;;;;;;;;;5044150;28;20024;-64
2021/07/07 08:14:42;;;;;;;2.93;1.50;;;;;;;;;;5050114;28;20348;-61
2021/07/07 08:17:08;;;;;;;1.73;1.10;;;;;;;;;;5032797;28;20275;-62
2021/07/07 08:19:33;;;;;;;4.07;1.33;;;;;;;;;;5035527;28;20349;-62
2021/07/07 08:21:58;;;;;;;2.22;1.20;;;;;;;;;;5043599;28;20048;-62
2021/07/07 08:24:23;;;;;;;2.53;1.48;;;;;;;;;;5037417;28;20046;-62
2021/07/07 08:26:48;;;;;;;1.80;1.20;;;;;;;;;;5042116;28;20131;-62
2021/07/07 08:29:13;;;;;;;2.78;1.40;;;;;;;;;;5041083;28;20619;-62
2021/07/07 08:31:39;;;;;;;2.87;1.60;;;;;;;;;;5030537;28;20089;-63
2021/07/07 08:34:04;;;;;;;2.83;1.30;;;;;;;;;;5030827;28;20249;-63
2021/07/07 08:36:29;;;;;;;2.73;1.40;;;;;;;;;;5031315;28;20033;-62
2021/07/07 08:38:55;;;;;;;2.78;1.40;;;;;;;;;;5032795;28;20272;-62
2021/07/07 08:41:20;;;;;;;6.75;1.77;;;;;;;;;;5030569;28;20045;-62
2021/07/07 08:43:46;;;;;;;4.05;1.35;;;;;;;;;;5047726;28;20032;-62
2021/07/07 08:46:11;;;;;;;2.92;1.27;;;;;;;;;;5036319;28;20432;-64
2021/07/07 08:48:36;;;;;;;1.73;1.02;;;;;;;;;;5042375;28;20021;-63
2021/07/07 08:51:02;;;;;;;3.97;1.55;;;;;;;;;;5042924;28;20013;-63
2021/07/07 08:53:28;;;;;;;2.42;1.00;;;;;;;;;;5042972;28;20544;-62
2021/07/07 08:55:54;;;;;;;2.22;1.10;;;;;;;;;;5041178;28;20033;-61
2021/07/07 08:58:19;;;;;;;1.73;1.13;;;;;;;;;;5029821;28;20017;-61
2021/07/07 09:00:44;;;;;;;2.05;1.30;;;;;;;;;;5040819;28;20013;-62
2021/07/07 09:03:11;;;;;;;1.75;1.10;;;;;;;;;;5049276;28;20020;-62
2021/07/07 09:05:55;;;;;;;2.80;1.00;;;;;;;;;;5033060;28;20083;-62
2021/07/07 09:08:21;;;;;;;3.47;1.13;;;;;;;;;;5040702;28;20031;-62
2021/07/07 09:10:46;;;;;;;3.25;1.08;;;;;;;;;;5042831;28;20419;-62
2021/07/07 09:13:13;;;;;;;3.58;1.10;;;;;;;;;;5035385;28;20028;-63
2021/07/07 09:15:39;;;;;;;1.90;1.10;;;;;;;;;;5048776;28;20028;-63
2021/07/07 09:18:04;;;;;;;1.88;1.38;;;;;;;;;;5049832;28;20434;-62
2021/07/07 09:20:36;;;;;;;2.25;1.02;;;;;;;;;;5038128;28;20025;-63
2021/07/07 09:23:18;;;;;;;3.45;1.05;;;;;;;;;;5047565;28;20028;-63
2021/07/07 09:25:56;;;;;;;4.72;1.30;;;;;;;;;;5049634;28;20025;-63
2021/07/07 09:28:26;;;;;;;1.85;1.10;;;;;;;;;;5049181;28;20065;-63
2021/07/07 09:30:52;;;;;;;1.60;1.10;;;;;;;;;;5045946;28;20380;-63
2021/07/07 09:33:17;;;;;;;1.70;1.02;;;;;;;;;;5038891;28;20236;-62
2021/07/07 09:35:42;;;;;;;2.25;1.00;;;;;;;;;;5030503;28;20445;-62
2021/07/07 09:38:08;;;;;;;1.38;0.90;;;;;;;;;;5048468;28;20377;-63
2021/07/07 09:40:39;;;;;;;1.60;0.90;;;;;;;;;;5039639;28;20029;-61
2021/07/07 09:43:04;;;;;;;2.97;1.15;;;;;;;;;;5030632;28;20041;-63
2021/07/07 09:45:30;;;;;;;2.30;1.13;;;;;;;;;;5042515;28;20025;-62
2021/07/07 09:47:55;;;;;;;2.10;1.20;;;;;;;;;;5035426;28;20597;-64
2021/07/07 09:50:20;;;;;;;1.70;1.20;;;;;;;;;;5036156;28;20345;-62
2021/07/07 09:52:45;;;;;;;3.65;1.30;;;;;;;;;;5029542;28;20752;-63
2021/07/07 09:55:11;;;;;;;2.13;1.02;;;;;;;;;;5034503;28;20021;-62
2021/07/07 09:57:46;;;;;;;3.95;1.35;;;;;;;;;;5030822;28;20032;-63
2021/07/07 10:00:16;;;;;;;3.40;1.40;;;;;;;;;;5029546;28;20018;-63
2021/07/07 10:02:42;;;;;;;;;;;;;;;;;;5035419;28;20079;-63
2021/07/07 10:05:09;;;;;;;3.30;1.30;;;;;;;;;;5029955;28;20121;-62
2021/07/07 10:07:34;;;;;;;2.15;1.35;;;;;;;;;;5041382;28;20419;-63
2021/07/07 10:10:00;;;;;;;3.17;1.20;;;;;;;;;;5036841;28;20025;-63
2021/07/07 10:12:27;;;;;;;2.88;1.45;;;;;;;;;;5044232;28;20036;-63
2021/07/07 10:14:52;;;;;;;3.28;1.85;;;;;;;;;;5046586;28;20115;-63
2021/07/07 10:17:18;;;;;;;4.63;1.70;;;;;;;;;;5031118;28;20112;-63
2021/07/07 10:19:43;;;;;;;2.65;1.73;;;;;;;;;;5039763;28;20372;-63
2021/07/07 10:22:09;;;;;;;1.80;1.30;;;;;;;;;;5048143;28;20535;-63
2021/07/07 10:24:34;;;;;;;4.13;1.90;;;;;;;;;;5033820;28;20025;-64
2021/07/07 10:27:01;;;;;;;4.30;1.90;;;;;;;;;;5041224;28;20140;-63
2021/07/07 10:29:26;;;;;;;2.88;1.38;;;;;;;;;;5049941;28;20021;-63
2021/07/07 10:31:53;;;;;;;2.80;2.03;;;;;;;;;;5033201;28;20079;-63
2021/07/07 10:34:19;;;;;;;4.10;2.03;;;;;;;;;;5041917;28;20030;-63
2021/07/07 10:36:45;;;;;;;3.80;2.65;;;;;;;;;;5043004;28;20045;-63
2021/07/07 10:39:11;;;;;;;3.60;1.75;;;;;;;;;;5046418;28;20029;-63
2021/07/07 10:41:46;;;;;;;4.85;2.58;;;;;;;;;;5032857;28;20115;-63
2021/07/07 10:44:23;;;;;;;4.00;2.28;;;;;;;;;;5032808;28;20032;-63
2021/07/07 10:46:53;;;;;;;4.55;2.05;;;;;;;;;;5030631;28;20112;-63
2021/07/07 10:49:22;;;;;;;2.38;1.92;;;;;;;;;;5036925;28;20033;-62
2021/07/07 10:51:48;;;;;;;2.97;2.10;;;;;;;;;;5047879;28;20025;-63
2021/07/07 10:54:23;;;;;;;2.80;2.00;;;;;;;;;;5036295;28;20117;-62
2021/07/07 10:56:49;;;;;;;2.33;1.65;;;;;;;;;;5045517;28;20037;-63
2021/07/07 10:59:32;;;;;;;3.83;1.70;;;;;;;;;;5034566;28;20087;-63
2021/07/07 11:02:07;;;;;;;2.03;1.65;;;;;;;;;;5051873;28;20036;-63
2021/07/07 11:04:39;;;;;;;3.83;1.90;;;;;;;;;;5039575;28;20017;-63
2021/07/07 11:07:43;;;;;;;2.45;1.65;;;;;;;;;;5039741;28;20613;-63
2021/07/07 11:10:13;;;;;;;3.83;2.00;;;;;;;;;;5003386;28;20092;-61
2021/07/07 11:12:39;;;;;;;9.65;2.28;;;;;;;;;;5009243;28;20129;-63
2021/07/07 11:15:09;;;;;;;2.17;1.65;;;;;;;;;;5003297;28;20137;-62
2021/07/07 11:17:38;;;;;;;4.13;1.77;;;;;;;;;;4995860;28;20493;-63
2021/07/07 11:20:13;;;;;;;1.38;1.27;;;;;;;;;;5009260;28;20038;-63
2021/07/07 11:22:39;;;;;;;3.20;1.55;;;;;;;;;;4990228;28;20621;-63
2021/07/07 11:25:06;;;;;;;2.30;1.60;;;;;;;;;;4991767;28;20509;-63
2021/07/07 11:27:32;;;;;;;3.08;1.63;;;;;;;;;;4979962;28;20505;-63
2021/07/07 11:29:57;;;;;;;2.42;1.23;;;;;;;;;;5002953;28;20053;-62
2021/07/07 11:32:24;;;;;;;2.42;1.50;;;;;;;;;;5008732;28;20492;-62
2021/07/07 11:34:50;;;;;;;2.17;1.45;;;;;;;;;;4989997;28;20089;-62
2021/07/07 11:37:16;;;;;;;2.10;1.20;;;;;;;;;;5007844;28;20033;-62
2021/07/07 11:39:41;;;;;;;1.40;1.05;;;;;;;;;;5001096;28;20026;-63
2021/07/07 11:42:06;;;;;;;1.80;1.10;;;;;;;;;;5050316;28;20151;-63
2021/07/07 11:44:42;;;;;;;2.15;1.10;;;;;;;;;;5035515;28;20023;-63
2021/07/07 11:47:08;;;;;;;1.70;1.05;;;;;;;;;;5037124;28;20586;-63
2021/07/07 11:49:34;;;;;;;1.92;1.10;;;;;;;;;;5032373;28;20051;-64
2021/07/07 11:52:03;;;;;;;2.15;0.95;;;;;;;;;;5036382;28;20025;-63
2021/07/07 11:54:28;;;;;;;1.92;1.30;;;;;;;;;;5037636;28;20021;-63
2021/07/07 11:56:59;;;;;;;1.40;1.10;;;;;;;;;;5037014;28;20033;-63
2021/07/07 11:59:24;;;;;;;3.03;1.40;;;;;;;;;;5038728;28;20076;-64
2021/07/07 12:01:56;;;;;;;2.80;1.30;;;;;;;;;;5031648;28;20422;-63
2021/07/07 12:04:25;;;;;;;2.50;1.00;;;;;;;;;;5049679;28;20298;-62
2021/07/07 12:06:55;;;;;;;3.47;1.00;;;;;;;;;;5037312;28;20419;-63
2021/07/07 12:09:21;;;;;;;3.03;1.17;;;;;;;;;;5036185;28;20040;-64
2021/07/07 12:11:54;;;;;;;1.10;1.00;;;;;;;;;;5044314;28;20079;-63
2021/07/07 12:14:19;;;;;;;1.92;1.17;;;;;;;;;;5037259;28;20060;-64
2021/07/07 12:16:46;;;;;;;1.67;0.80;;;;;;;;;;5031327;28;20752;-64
2021/07/07 12:19:12;;;;;;;3.13;1.10;;;;;;;;;;5031465;28;20515;-65
2021/07/07 12:21:39;;;;;;;1.70;1.15;;;;;;;;;;5041968;28;20040;-63
2021/07/07 12:24:06;;;;;;;1.50;1.00;;;;;;;;;;5043842;28;20368;-63
2021/07/07 12:26:32;;;;;;;1.60;0.88;;;;;;;;;;5045682;28;20104;-63
2021/07/07 12:29:00;;;;;;;1.00;0.90;;;;;;;;;;5030747;28;20874;-65
2021/07/07 12:31:27;;;;;;;1.83;1.15;;;;;;;;;;5035411;28;20025;-64
2021/07/07 12:33:53;;;;;;;3.10;1.38;;;;;;;;;;5032334;28;20049;-64
2021/07/07 12:36:28;;;;;;;2.45;1.17;;;;;;;;;;5030681;28;20038;-62
2021/07/07 12:38:56;;;;;;;3.08;1.52;;;;;;;;;;5043575;28;20490;-63
2021/07/07 12:41:30;;;;;;;1.48;1.00;;;;;;;;;;5033168;28;20156;-63
2021/07/07 12:44:18;;;;;;;3.05;1.38;;;;;;;;;;5041626;28;20030;-64
2021/07/07 12:46:50;;;;;;;1.65;1.35;;;;;;;;;;5026985;28;20389;-63
2021/07/07 12:49:24;;;;;;;1.88;1.15;;;;;;;;;;5027786;28;20110;-63
2021/07/07 12:51:50;;;;;;;1.48;1.17;;;;;;;;;;5033579;28;20064;-63
2021/07/07 12:54:20;;;;;;;2.88;1.10;;;;;;;;;;5024731;28;20017;-63
2021/07/07 12:56:58;;;;;;;1.77;1.05;;;;;;;;;;5034112;28;20024;-64
2021/07/07 12:59:24;;;;;;;2.28;1.10;;;;;;;;;;5030582;28;20030;-63
2021/07/07 13:01:57;;;;;;;1.08;0.80;;;;;;;;;;5026888;28;20017;-63
2021/07/07 13:04:23;;;;;;;1.45;0.93;;;;;;;;;;5023986;28;20049;-62
2021/07/07 13:06:59;;;;;;;1.60;1.05;;;;;;;;;;5028599;28;20499;-63
2021/07/07 13:09:25;;;;;;;2.03;0.80;;;;;;;;;;5027293;28;20037;-63
2021/07/07 13:11:58;;;;;;;1.33;1.07;;;;;;;;;;5026626;28;20080;-63
2021/07/07 13:14:24;;;;;;;1.67;0.85;;;;;;;;;;5036408;28;20616;-64
2021/07/07 13:16:50;;;;;;;2.28;1.20;;;;;;;;;;5024756;28;20044;-62
2021/07/07 13:19:26;;;;;;;1.70;1.30;;;;;;;;;;5037639;28;20013;-63
2021/07/07 13:21:52;;;;;;;1.42;1.10;;;;;;;;;;5028742;28;20021;-63
2021/07/07 13:24:18;;;;;;;1.23;1.00;;;;;;;;;;5029021;28;20041;-63
2021/07/07 13:26:45;;;;;;;2.55;1.10;;;;;;;;;;5035823;28;20447;-65
2021/07/07 13:29:16;;;;;;;1.50;1.00;;;;;;;;;;5029581;28;20372;-63
2021/07/07 13:31:42;;;;;;;4.03;1.30;;;;;;;;;;5025050;28;20025;-63
2021/07/07 13:34:07;;;;;;;2.08;1.15;;;;;;;;;;5029708;28;20018;-66
2021/07/07 13:36:36;;;;;;;2.53;1.30;;;;;;;;;;5029958;28;20029;-63
2021/07/07 13:39:11;;;;;;;1.77;1.10;;;;;;;;;;5029605;28;20306;-62
2021/07/07 13:41:38;;;;;;;1.98;1.10;;;;;;;;;;5029491;28;20303;-64
2021/07/07 13:44:03;;;;;;;1.60;1.10;;;;;;;;;;5036129;28;20029;-63
2021/07/07 13:46:29;;;;;;;1.10;0.68;;;;;;;;;;5036420;28;20357;-63
2021/07/07 13:48:54;;;;;;;2.50;1.13;;;;;;;;;;5047798;28;20021;-63
2021/07/07 13:51:22;;;;;;;1.10;0.93;;;;;;;;;;5048766;28;20077;-63
2021/07/07 13:53:47;;;;;;;1.10;0.80;;;;;;;;;;5043072;28;20022;-64
2021/07/07 13:56:12;;;;;;;1.38;1.00;;;;;;;;;;5040661;28;20397;-63
2021/07/07 13:58:37;;;;;;;1.87;1.03;;;;;;;;;;5048401;28;20020;-64
2021/07/07 14:01:03;;;;;;;2.25;1.15;;;;;;;;;;5034617;28;20252;-63
2021/07/07 14:03:28;;;;;;;3.20;1.20;;;;;;;;;;5048293;28;20017;-62
2021/07/07 14:05:55;;;;;;;1.10;0.98;;;;;;;;;;5040096;28;20104;-64
2021/07/07 14:08:20;;;;;;;6.13;1.30;;;;;;;;;;5038843;28;20020;-63
2021/07/07 14:10:45;;;;;;;1.83;1.20;;;;;;;;;;5039350;28;20031;-64
2021/07/07 14:13:10;;;;;;;2.33;1.40;;;;;;;;;;5044638;28;20077;-62
2021/07/07 14:15:35;;;;;;;3.00;1.20;;;;;;;;;;5033299;28;20314;-62
2021/07/07 14:18:01;;;;;;;3.20;1.13;;;;;;;;;;5043890;28;20347;-63
2021/07/07 14:20:26;;;;;;;1.17;1.00;;;;;;;;;;5034252;28;20445;-61
2021/07/07 14:22:51;;;;;;;2.17;1.10;;;;;;;;;;5031767;28;20017;-63
2021/07/07 14:25:18;;;;;;;3.40;1.00;;;;;;;;;;5038056;28;20275;-64
2021/07/07 14:27:43;;;;;;;2.20;1.15;;;;;;;;;;5028947;28;20747;-61
2021/07/07 14:30:09;;;;;;;3.88;1.08;;;;;;;;;;5035687;28;20087;-64
2021/07/07 14:32:34;;;;;;;3.00;1.02;;;;;;;;;;5042126;28;20072;-62
2021/07/07 14:34:59;;;;;;;1.83;1.00;;;;;;;;;;5035288;28;20029;-63
2021/07/07 14:37:24;;;;;;;3.20;1.30;;;;;;;;;;5028999;28;20775;-62
2021/07/07 14:39:50;;;;;;;1.90;1.30;;;;;;;;;;5027769;28;20256;-63